sensor_id;sensor_type;location;lat;lon;timestamp;P1;durP1;ratioP1;P2;durP2;ratioP2
42832;SDS011;28479;51.478;5.692;2022-07-31T00:01:16;4.75;;;3.00;;
42832;SDS011;28479;51.478;5.692;2022-07-31T00:03:41;5.93;;;3.88;;
42832;SDS011;28479;51.478;5.692;2022-07-31T00:06:07;7.80;;;3.40;;
42832;SDS011;28479;51.478;5.692;2022-07-31T00:08:33;10.60;;;4.18;;
42832;SDS011;28479;51.478;5.692;2022-07-31T00:11:00;10.93;;;4.50;;
42832;SDS011;28479;51.478;5.692;2022-07-31T00:13:25;9.00;;;5.22;;
42832;SDS011;28479;51.478;5.692;2022-07-31T00:15:51;6.65;;;4.85;;
42832;SDS011;28479;51.478;5.692;2022-07-31T00:18:16;12.27;;;5.68;;
42832;SDS011;28479;51.478;5.692;2022-07-31T00:20:44;7.90;;;5.82;;
42832;SDS011;28479;51.478;5.692;2022-07-31T00:23:10;8.13;;;5.38;;
42832;SDS011;28479;51.478;5.692;2022-07-31T00:25:36;18.55;;;5.57;;
42832;SDS011;28479;51.478;5.692;2022-07-31T00:28:02;7.78;;;5.10;;
42832;SDS011;28479;51.478;5.692;2022-07-31T00:30:28;5.78;;;4.00;;
42832;SDS011;28479;51.478;5.692;2022-07-31T00:32:54;7.03;;;3.92;;
42832;SDS011;28479;51.478;5.692;2022-07-31T00:35:20;15.43;;;4.57;;
42832;SDS011;28479;51.478;5.692;2022-07-31T00:37:46;9.35;;;4.32;;
42832;SDS011;28479;51.478;5.692;2022-07-31T00:40:12;8.30;;;5.20;;
42832;SDS011;28479;51.478;5.692;2022-07-31T00:42:39;9.10;;;5.05;;
42832;SDS011;28479;51.478;5.692;2022-07-31T00:45:05;7.20;;;4.13;;
42832;SDS011;28479;51.478;5.692;2022-07-31T00:47:32;7.93;;;4.47;;
42832;SDS011;28479;51.478;5.692;2022-07-31T00:49:57;6.38;;;4.03;;
42832;SDS011;28479;51.478;5.692;2022-07-31T00:52:23;9.13;;;4.95;;
42832;SDS011;28479;51.478;5.692;2022-07-31T00:54:49;5.30;;;3.45;;
42832;SDS011;28479;51.478;5.692;2022-07-31T00:57:15;4.50;;;3.55;;
42832;SDS011;28479;51.478;5.692;2022-07-31T00:59:40;8.15;;;3.63;;
42832;SDS011;28479;51.478;5.692;2022-07-31T01:02:07;6.93;;;3.72;;
42832;SDS011;28479;51.478;5.692;2022-07-31T01:04:33;9.05;;;4.00;;
42832;SDS011;28479;51.478;5.692;2022-07-31T01:06:59;7.15;;;4.03;;
42832;SDS011;28479;51.478;5.692;2022-07-31T01:09:27;7.00;;;3.78;;
42832;SDS011;28479;51.478;5.692;2022-07-31T01:11:58;8.90;;;4.65;;
42832;SDS011;28479;51.478;5.692;2022-07-31T01:14:26;5.20;;;3.88;;
42832;SDS011;28479;51.478;5.692;2022-07-31T01:16:55;6.15;;;3.70;;
42832;SDS011;28479;51.478;5.692;2022-07-31T01:19:25;12.07;;;4.03;;
42832;SDS011;28479;51.478;5.692;2022-07-31T01:24:41;7.32;;;4.28;;
42832;SDS011;28479;51.478;5.692;2022-07-31T01:27:26;11.05;;;5.60;;
42832;SDS011;28479;51.478;5.692;2022-07-31T01:30:12;6.80;;;5.05;;
42832;SDS011;28479;51.478;5.692;2022-07-31T01:32:40;10.98;;;5.80;;
42832;SDS011;28479;51.478;5.692;2022-07-31T01:35:10;7.38;;;5.72;;
42832;SDS011;28479;51.478;5.692;2022-07-31T01:37:43;10.75;;;4.95;;
42832;SDS011;28479;51.478;5.692;2022-07-31T01:40:14;11.73;;;7.15;;
42832;SDS011;28479;51.478;5.692;2022-07-31T01:42:47;12.85;;;6.93;;
42832;SDS011;28479;51.478;5.692;2022-07-31T01:45:17;7.25;;;5.50;;
42832;SDS011;28479;51.478;5.692;2022-07-31T01:47:44;8.98;;;5.95;;
42832;SDS011;28479;51.478;5.692;2022-07-31T01:50:13;10.80;;;6.78;;
42832;SDS011;28479;51.478;5.692;2022-07-31T01:52:40;9.00;;;6.57;;
42832;SDS011;28479;51.478;5.692;2022-07-31T01:55:07;13.73;;;6.80;;
42832;SDS011;28479;51.478;5.692;2022-07-31T01:57:34;14.20;;;5.65;;
42832;SDS011;28479;51.478;5.692;2022-07-31T02:00:03;9.80;;;5.80;;
42832;SDS011;28479;51.478;5.692;2022-07-31T02:02:31;10.82;;;5.65;;
42832;SDS011;28479;51.478;5.692;2022-07-31T02:05:00;10.27;;;5.18;;
42832;SDS011;28479;51.478;5.692;2022-07-31T02:07:31;6.97;;;4.93;;
42832;SDS011;28479;51.478;5.692;2022-07-31T02:09:59;12.82;;;5.10;;
42832;SDS011;28479;51.478;5.692;2022-07-31T02:12:25;7.40;;;5.47;;
42832;SDS011;28479;51.478;5.692;2022-07-31T02:14:52;8.02;;;5.35;;
42832;SDS011;28479;51.478;5.692;2022-07-31T02:17:18;8.82;;;5.22;;
42832;SDS011;28479;51.478;5.692;2022-07-31T02:19:45;6.45;;;4.38;;
42832;SDS011;28479;51.478;5.692;2022-07-31T02:22:12;9.65;;;4.43;;
42832;SDS011;28479;51.478;5.692;2022-07-31T02:24:38;6.45;;;4.50;;
42832;SDS011;28479;51.478;5.692;2022-07-31T02:27:03;7.78;;;4.38;;
42832;SDS011;28479;51.478;5.692;2022-07-31T02:29:30;10.15;;;4.78;;
42832;SDS011;28479;51.478;5.692;2022-07-31T02:32:00;14.18;;;4.80;;
42832;SDS011;28479;51.478;5.692;2022-07-31T02:34:27;8.10;;;4.43;;
42832;SDS011;28479;51.478;5.692;2022-07-31T02:36:57;6.32;;;4.38;;
42832;SDS011;28479;51.478;5.692;2022-07-31T02:39:24;8.07;;;4.40;;
42832;SDS011;28479;51.478;5.692;2022-07-31T02:41:51;9.52;;;4.28;;
42832;SDS011;28479;51.478;5.692;2022-07-31T02:44:18;11.02;;;4.90;;
42832;SDS011;28479;51.478;5.692;2022-07-31T02:46:44;8.40;;;4.32;;
42832;SDS011;28479;51.478;5.692;2022-07-31T02:49:11;10.25;;;3.90;;
42832;SDS011;28479;51.478;5.692;2022-07-31T02:51:40;6.50;;;4.00;;
42832;SDS011;28479;51.478;5.692;2022-07-31T02:54:06;7.88;;;4.13;;
42832;SDS011;28479;51.478;5.692;2022-07-31T02:56:32;10.43;;;4.65;;
42832;SDS011;28479;51.478;5.692;2022-07-31T02:58:58;7.82;;;4.90;;
42832;SDS011;28479;51.478;5.692;2022-07-31T03:01:24;5.45;;;4.25;;
42832;SDS011;28479;51.478;5.692;2022-07-31T03:03:50;10.77;;;4.30;;
42832;SDS011;28479;51.478;5.692;2022-07-31T03:06:16;30.65;;;5.15;;
42832;SDS011;28479;51.478;5.692;2022-07-31T03:08:42;11.30;;;4.50;;
42832;SDS011;28479;51.478;5.692;2022-07-31T03:11:08;8.68;;;4.55;;
42832;SDS011;28479;51.478;5.692;2022-07-31T03:13:35;6.97;;;4.95;;
42832;SDS011;28479;51.478;5.692;2022-07-31T03:16:03;6.55;;;4.38;;
42832;SDS011;28479;51.478;5.692;2022-07-31T03:18:31;12.38;;;5.13;;
42832;SDS011;28479;51.478;5.692;2022-07-31T03:20:57;5.65;;;4.25;;
42832;SDS011;28479;51.478;5.692;2022-07-31T03:23:23;9.98;;;5.80;;
42832;SDS011;28479;51.478;5.692;2022-07-31T03:25:50;8.95;;;5.03;;
42832;SDS011;28479;51.478;5.692;2022-07-31T03:28:19;10.75;;;5.13;;
42832;SDS011;28479;51.478;5.692;2022-07-31T03:30:53;8.38;;;5.30;;
42832;SDS011;28479;51.478;5.692;2022-07-31T03:33:19;12.55;;;5.80;;
42832;SDS011;28479;51.478;5.692;2022-07-31T03:35:46;7.82;;;5.28;;
42832;SDS011;28479;51.478;5.692;2022-07-31T03:38:12;6.50;;;4.53;;
42832;SDS011;28479;51.478;5.692;2022-07-31T03:40:37;9.70;;;4.57;;
42832;SDS011;28479;51.478;5.692;2022-07-31T03:43:03;6.80;;;4.78;;
42832;SDS011;28479;51.478;5.692;2022-07-31T03:45:30;7.85;;;5.38;;
42832;SDS011;28479;51.478;5.692;2022-07-31T03:47:58;7.03;;;5.32;;
42832;SDS011;28479;51.478;5.692;2022-07-31T03:50:24;11.13;;;5.80;;
42832;SDS011;28479;51.478;5.692;2022-07-31T03:52:50;10.38;;;5.15;;
42832;SDS011;28479;51.478;5.692;2022-07-31T03:55:16;14.20;;;5.95;;
42832;SDS011;28479;51.478;5.692;2022-07-31T03:57:42;9.25;;;5.78;;
42832;SDS011;28479;51.478;5.692;2022-07-31T04:00:09;11.15;;;6.03;;
42832;SDS011;28479;51.478;5.692;2022-07-31T04:02:35;9.48;;;5.50;;
42832;SDS011;28479;51.478;5.692;2022-07-31T04:05:01;12.50;;;6.68;;
42832;SDS011;28479;51.478;5.692;2022-07-31T04:07:27;11.48;;;5.75;;
42832;SDS011;28479;51.478;5.692;2022-07-31T04:09:54;14.25;;;6.07;;
42832;SDS011;28479;51.478;5.692;2022-07-31T04:12:20;9.07;;;5.05;;
42832;SDS011;28479;51.478;5.692;2022-07-31T04:14:45;8.60;;;6.13;;
42832;SDS011;28479;51.478;5.692;2022-07-31T04:17:11;13.15;;;6.13;;
42832;SDS011;28479;51.478;5.692;2022-07-31T04:19:37;11.93;;;5.85;;
42832;SDS011;28479;51.478;5.692;2022-07-31T04:22:03;14.68;;;5.10;;
42832;SDS011;28479;51.478;5.692;2022-07-31T04:24:29;9.85;;;5.38;;
42832;SDS011;28479;51.478;5.692;2022-07-31T04:26:55;16.58;;;5.53;;
42832;SDS011;28479;51.478;5.692;2022-07-31T04:29:21;10.65;;;5.03;;
42832;SDS011;28479;51.478;5.692;2022-07-31T04:31:47;10.55;;;5.13;;
42832;SDS011;28479;51.478;5.692;2022-07-31T04:34:25;11.88;;;5.40;;
42832;SDS011;28479;51.478;5.692;2022-07-31T04:36:50;8.82;;;5.53;;
42832;SDS011;28479;51.478;5.692;2022-07-31T04:39:16;10.63;;;5.15;;
42832;SDS011;28479;51.478;5.692;2022-07-31T04:41:43;13.02;;;5.38;;
42832;SDS011;28479;51.478;5.692;2022-07-31T04:44:08;8.57;;;5.70;;
42832;SDS011;28479;51.478;5.692;2022-07-31T04:46:34;7.70;;;5.63;;
42832;SDS011;28479;51.478;5.692;2022-07-31T04:49:00;10.32;;;5.32;;
42832;SDS011;28479;51.478;5.692;2022-07-31T04:51:26;15.18;;;6.28;;
42832;SDS011;28479;51.478;5.692;2022-07-31T04:53:51;13.82;;;5.15;;
42832;SDS011;28479;51.478;5.692;2022-07-31T04:56:17;9.27;;;4.80;;
42832;SDS011;28479;51.478;5.692;2022-07-31T04:59:06;9.20;;;5.05;;
42832;SDS011;28479;51.478;5.692;2022-07-31T05:01:33;9.93;;;4.60;;
42832;SDS011;28479;51.478;5.692;2022-07-31T05:03:59;7.60;;;5.20;;
42832;SDS011;28479;51.478;5.692;2022-07-31T05:06:32;10.43;;;5.03;;
42832;SDS011;28479;51.478;5.692;2022-07-31T05:08:58;8.55;;;4.40;;
42832;SDS011;28479;51.478;5.692;2022-07-31T05:11:26;8.70;;;4.68;;
42832;SDS011;28479;51.478;5.692;2022-07-31T05:13:52;5.97;;;4.28;;
42832;SDS011;28479;51.478;5.692;2022-07-31T05:16:20;6.35;;;4.20;;
42832;SDS011;28479;51.478;5.692;2022-07-31T05:18:46;8.13;;;4.25;;
42832;SDS011;28479;51.478;5.692;2022-07-31T05:21:13;5.40;;;3.80;;
42832;SDS011;28479;51.478;5.692;2022-07-31T05:23:39;8.55;;;4.40;;
42832;SDS011;28479;51.478;5.692;2022-07-31T05:26:08;5.28;;;3.25;;
42832;SDS011;28479;51.478;5.692;2022-07-31T05:28:36;8.73;;;4.35;;
42832;SDS011;28479;51.478;5.692;2022-07-31T05:31:03;9.85;;;3.33;;
42832;SDS011;28479;51.478;5.692;2022-07-31T05:33:30;7.25;;;3.88;;
42832;SDS011;28479;51.478;5.692;2022-07-31T05:35:56;4.10;;;3.05;;
42832;SDS011;28479;51.478;5.692;2022-07-31T05:38:25;5.38;;;3.30;;
42832;SDS011;28479;51.478;5.692;2022-07-31T05:40:52;4.55;;;3.05;;
42832;SDS011;28479;51.478;5.692;2022-07-31T05:43:18;5.68;;;3.80;;
42832;SDS011;28479;51.478;5.692;2022-07-31T05:45:44;9.05;;;3.80;;
42832;SDS011;28479;51.478;5.692;2022-07-31T05:48:13;5.43;;;3.75;;
42832;SDS011;28479;51.478;5.692;2022-07-31T05:50:45;7.05;;;2.90;;
42832;SDS011;28479;51.478;5.692;2022-07-31T05:53:12;5.03;;;2.88;;
42832;SDS011;28479;51.478;5.692;2022-07-31T05:55:41;7.68;;;3.85;;
42832;SDS011;28479;51.478;5.692;2022-07-31T05:58:08;5.40;;;3.20;;
42832;SDS011;28479;51.478;5.692;2022-07-31T06:00:35;6.38;;;3.03;;
42832;SDS011;28479;51.478;5.692;2022-07-31T06:03:02;8.93;;;2.78;;
42832;SDS011;28479;51.478;5.692;2022-07-31T06:05:28;5.18;;;2.95;;
42832;SDS011;28479;51.478;5.692;2022-07-31T06:07:57;6.00;;;3.00;;
42832;SDS011;28479;51.478;5.692;2022-07-31T06:10:25;6.82;;;3.90;;
42832;SDS011;28479;51.478;5.692;2022-07-31T06:12:52;5.28;;;3.13;;
42832;SDS011;28479;51.478;5.692;2022-07-31T06:15:21;5.25;;;2.80;;
42832;SDS011;28479;51.478;5.692;2022-07-31T06:17:46;3.38;;;2.50;;
42832;SDS011;28479;51.478;5.692;2022-07-31T06:20:12;4.05;;;2.67;;
42832;SDS011;28479;51.478;5.692;2022-07-31T06:22:39;3.90;;;3.15;;
42832;SDS011;28479;51.478;5.692;2022-07-31T06:25:05;2.70;;;2.20;;
42832;SDS011;28479;51.478;5.692;2022-07-31T06:27:32;4.72;;;2.85;;
42832;SDS011;28479;51.478;5.692;2022-07-31T06:29:58;3.55;;;2.20;;
42832;SDS011;28479;51.478;5.692;2022-07-31T06:32:24;3.78;;;2.33;;
42832;SDS011;28479;51.478;5.692;2022-07-31T06:34:50;4.35;;;3.08;;
42832;SDS011;28479;51.478;5.692;2022-07-31T06:37:15;2.65;;;2.15;;
42832;SDS011;28479;51.478;5.692;2022-07-31T06:39:41;4.18;;;2.30;;
42832;SDS011;28479;51.478;5.692;2022-07-31T06:42:07;2.55;;;2.08;;
42832;SDS011;28479;51.478;5.692;2022-07-31T06:44:33;5.75;;;2.00;;
42832;SDS011;28479;51.478;5.692;2022-07-31T06:46:59;3.30;;;2.20;;
42832;SDS011;28479;51.478;5.692;2022-07-31T06:49:24;8.10;;;2.67;;
42832;SDS011;28479;51.478;5.692;2022-07-31T06:51:50;5.05;;;2.30;;
42832;SDS011;28479;51.478;5.692;2022-07-31T06:54:16;4.90;;;2.75;;
42832;SDS011;28479;51.478;5.692;2022-07-31T06:56:42;4.45;;;2.72;;
42832;SDS011;28479;51.478;5.692;2022-07-31T06:59:08;4.60;;;3.10;;
42832;SDS011;28479;51.478;5.692;2022-07-31T07:01:34;7.15;;;2.88;;
42832;SDS011;28479;51.478;5.692;2022-07-31T07:03:59;5.20;;;3.08;;
42832;SDS011;28479;51.478;5.692;2022-07-31T07:06:25;4.72;;;2.80;;
42832;SDS011;28479;51.478;5.692;2022-07-31T07:08:51;10.05;;;3.45;;
42832;SDS011;28479;51.478;5.692;2022-07-31T07:11:17;4.40;;;2.75;;
42832;SDS011;28479;51.478;5.692;2022-07-31T07:13:43;3.65;;;2.35;;
42832;SDS011;28479;51.478;5.692;2022-07-31T07:16:09;2.58;;;2.22;;
42832;SDS011;28479;51.478;5.692;2022-07-31T07:18:35;3.75;;;2.47;;
42832;SDS011;28479;51.478;5.692;2022-07-31T07:21:01;2.25;;;1.92;;
42832;SDS011;28479;51.478;5.692;2022-07-31T07:23:27;2.85;;;2.05;;
42832;SDS011;28479;51.478;5.692;2022-07-31T07:25:52;2.70;;;2.15;;
42832;SDS011;28479;51.478;5.692;2022-07-31T07:28:18;1.90;;;1.70;;
42832;SDS011;28479;51.478;5.692;2022-07-31T07:30:44;6.72;;;2.45;;
42832;SDS011;28479;51.478;5.692;2022-07-31T07:33:09;3.13;;;2.00;;
42832;SDS011;28479;51.478;5.692;2022-07-31T07:35:35;3.35;;;2.15;;
42832;SDS011;28479;51.478;5.692;2022-07-31T07:38:01;3.75;;;2.33;;
42832;SDS011;28479;51.478;5.692;2022-07-31T07:40:27;3.63;;;2.42;;
42832;SDS011;28479;51.478;5.692;2022-07-31T07:42:53;3.40;;;2.63;;
42832;SDS011;28479;51.478;5.692;2022-07-31T07:45:21;4.03;;;2.38;;
42832;SDS011;28479;51.478;5.692;2022-07-31T07:47:50;3.42;;;2.38;;
42832;SDS011;28479;51.478;5.692;2022-07-31T07:50:16;6.43;;;3.20;;
42832;SDS011;28479;51.478;5.692;2022-07-31T07:52:42;4.88;;;3.05;;
42832;SDS011;28479;51.478;5.692;2022-07-31T07:55:08;5.93;;;2.75;;
42832;SDS011;28479;51.478;5.692;2022-07-31T07:57:37;10.70;;;3.20;;
42832;SDS011;28479;51.478;5.692;2022-07-31T08:00:04;4.43;;;2.88;;
42832;SDS011;28479;51.478;5.692;2022-07-31T08:02:32;4.65;;;3.20;;
42832;SDS011;28479;51.478;5.692;2022-07-31T08:04:58;4.82;;;3.15;;
42832;SDS011;28479;51.478;5.692;2022-07-31T08:07:31;4.03;;;2.65;;
42832;SDS011;28479;51.478;5.692;2022-07-31T08:09:59;7.63;;;3.53;;
42832;SDS011;28479;51.478;5.692;2022-07-31T08:12:25;9.75;;;2.97;;
42832;SDS011;28479;51.478;5.692;2022-07-31T08:14:52;32.10;;;16.88;;
42832;SDS011;28479;51.478;5.692;2022-07-31T08:17:18;23.20;;;12.05;;
42832;SDS011;28479;51.478;5.692;2022-07-31T08:19:44;35.28;;;17.42;;
42832;SDS011;28479;51.478;5.692;2022-07-31T08:22:10;32.03;;;17.63;;
42832;SDS011;28479;51.478;5.692;2022-07-31T08:24:36;11.77;;;7.25;;
42832;SDS011;28479;51.478;5.692;2022-07-31T08:27:01;10.68;;;5.43;;
42832;SDS011;28479;51.478;5.692;2022-07-31T08:29:45;6.28;;;3.97;;
42832;SDS011;28479;51.478;5.692;2022-07-31T08:32:11;5.75;;;3.30;;
42832;SDS011;28479;51.478;5.692;2022-07-31T08:34:38;4.05;;;3.05;;
42832;SDS011;28479;51.478;5.692;2022-07-31T08:37:04;5.57;;;3.10;;
42832;SDS011;28479;51.478;5.692;2022-07-31T08:39:32;3.88;;;2.58;;
42832;SDS011;28479;51.478;5.692;2022-07-31T08:41:58;4.10;;;3.25;;
42832;SDS011;28479;51.478;5.692;2022-07-31T08:44:28;3.60;;;2.67;;
42832;SDS011;28479;51.478;5.692;2022-07-31T08:46:53;5.03;;;2.85;;
42832;SDS011;28479;51.478;5.692;2022-07-31T08:49:24;6.15;;;2.88;;
42832;SDS011;28479;51.478;5.692;2022-07-31T08:51:50;4.78;;;3.20;;
42832;SDS011;28479;51.478;5.692;2022-07-31T08:54:17;4.00;;;2.80;;
42832;SDS011;28479;51.478;5.692;2022-07-31T08:56:43;3.13;;;2.35;;
42832;SDS011;28479;51.478;5.692;2022-07-31T08:59:11;7.65;;;3.05;;
42832;SDS011;28479;51.478;5.692;2022-07-31T09:01:36;3.90;;;2.47;;
42832;SDS011;28479;51.478;5.692;2022-07-31T09:04:02;5.63;;;2.85;;
42832;SDS011;28479;51.478;5.692;2022-07-31T09:06:28;4.80;;;3.08;;
42832;SDS011;28479;51.478;5.692;2022-07-31T09:08:57;4.45;;;2.90;;
42832;SDS011;28479;51.478;5.692;2022-07-31T09:11:23;6.55;;;2.88;;
42832;SDS011;28479;51.478;5.692;2022-07-31T09:13:52;4.90;;;2.60;;
42832;SDS011;28479;51.478;5.692;2022-07-31T09:16:18;3.35;;;2.97;;
42832;SDS011;28479;51.478;5.692;2022-07-31T09:18:51;6.75;;;2.75;;
42832;SDS011;28479;51.478;5.692;2022-07-31T09:21:43;34.60;;;19.50;;
42832;SDS011;28479;51.478;5.692;2022-07-31T09:24:10;17.55;;;11.73;;
42832;SDS011;28479;51.478;5.692;2022-07-31T09:26:37;39.65;;;22.02;;
42832;SDS011;28479;51.478;5.692;2022-07-31T09:29:05;38.28;;;21.88;;
42832;SDS011;28479;51.478;5.692;2022-07-31T09:34:03;10.77;;;4.50;;
42832;SDS011;28479;51.478;5.692;2022-07-31T09:36:29;4.45;;;3.03;;
42832;SDS011;28479;51.478;5.692;2022-07-31T09:38:56;4.63;;;3.00;;
42832;SDS011;28479;51.478;5.692;2022-07-31T09:41:23;4.05;;;2.50;;
42832;SDS011;28479;51.478;5.692;2022-07-31T09:43:58;3.47;;;2.17;;
42832;SDS011;28479;51.478;5.692;2022-07-31T09:46:36;6.40;;;2.42;;
42832;SDS011;28479;51.478;5.692;2022-07-31T09:49:06;2.58;;;2.30;;
42832;SDS011;28479;51.478;5.692;2022-07-31T09:51:39;5.75;;;2.83;;
42832;SDS011;28479;51.478;5.692;2022-07-31T09:54:07;3.83;;;2.50;;
42832;SDS011;28479;51.478;5.692;2022-07-31T09:56:43;3.90;;;1.92;;
42832;SDS011;28479;51.478;5.692;2022-07-31T09:59:10;4.97;;;2.53;;
42832;SDS011;28479;51.478;5.692;2022-07-31T10:01:36;3.67;;;2.15;;
42832;SDS011;28479;51.478;5.692;2022-07-31T10:04:02;3.40;;;2.58;;
42832;SDS011;28479;51.478;5.692;2022-07-31T10:06:30;5.13;;;2.42;;
42832;SDS011;28479;51.478;5.692;2022-07-31T10:08:57;6.38;;;2.25;;
42832;SDS011;28479;51.478;5.692;2022-07-31T10:11:26;4.70;;;2.30;;
42832;SDS011;28479;51.478;5.692;2022-07-31T10:13:59;4.32;;;2.20;;
42832;SDS011;28479;51.478;5.692;2022-07-31T10:16:26;4.38;;;2.35;;
42832;SDS011;28479;51.478;5.692;2022-07-31T10:18:58;3.15;;;2.38;;
42832;SDS011;28479;51.478;5.692;2022-07-31T10:21:28;3.00;;;2.22;;
42832;SDS011;28479;51.478;5.692;2022-07-31T10:24:02;9.40;;;4.85;;
42832;SDS011;28479;51.478;5.692;2022-07-31T10:26:31;9.38;;;5.60;;
42832;SDS011;28479;51.478;5.692;2022-07-31T10:28:57;42.92;;;21.15;;
42832;SDS011;28479;51.478;5.692;2022-07-31T10:31:24;29.60;;;15.02;;
42832;SDS011;28479;51.478;5.692;2022-07-31T10:33:50;13.43;;;6.97;;
42832;SDS011;28479;51.478;5.692;2022-07-31T10:36:22;5.00;;;3.05;;
42832;SDS011;28479;51.478;5.692;2022-07-31T10:39:00;4.57;;;2.50;;
42832;SDS011;28479;51.478;5.692;2022-07-31T10:44:10;5.03;;;2.60;;
42832;SDS011;28479;51.478;5.692;2022-07-31T10:47:21;2.70;;;2.28;;
42832;SDS011;28479;51.478;5.692;2022-07-31T10:49:47;3.08;;;2.22;;
42832;SDS011;28479;51.478;5.692;2022-07-31T10:52:35;3.75;;;2.20;;
42832;SDS011;28479;51.478;5.692;2022-07-31T10:55:01;2.63;;;2.20;;
42832;SDS011;28479;51.478;5.692;2022-07-31T10:57:38;3.25;;;2.17;;
42832;SDS011;28479;51.478;5.692;2022-07-31T11:00:13;3.63;;;2.10;;
42832;SDS011;28479;51.478;5.692;2022-07-31T11:02:44;2.35;;;1.88;;
42832;SDS011;28479;51.478;5.692;2022-07-31T11:05:18;5.03;;;2.10;;
42832;SDS011;28479;51.478;5.692;2022-07-31T11:07:59;2.60;;;1.77;;
42832;SDS011;28479;51.478;5.692;2022-07-31T11:10:27;6.13;;;2.30;;
42832;SDS011;28479;51.478;5.692;2022-07-31T11:13:06;3.15;;;2.25;;
42832;SDS011;28479;51.478;5.692;2022-07-31T11:15:34;4.95;;;2.40;;
42832;SDS011;28479;51.478;5.692;2022-07-31T11:18:14;3.22;;;2.15;;
42832;SDS011;28479;51.478;5.692;2022-07-31T11:20:41;2.67;;;2.00;;
42832;SDS011;28479;51.478;5.692;2022-07-31T11:23:11;3.80;;;2.08;;
42832;SDS011;28479;51.478;5.692;2022-07-31T11:25:39;3.85;;;1.90;;
42832;SDS011;28479;51.478;5.692;2022-07-31T11:28:15;1.83;;;1.65;;
42832;SDS011;28479;51.478;5.692;2022-07-31T11:36:23;3.03;;;2.38;;
42832;SDS011;28479;51.478;5.692;2022-07-31T11:38:50;4.90;;;2.30;;
42832;SDS011;28479;51.478;5.692;2022-07-31T11:41:18;3.40;;;2.13;;
42832;SDS011;28479;51.478;5.692;2022-07-31T11:43:50;3.17;;;1.88;;
42832;SDS011;28479;51.478;5.692;2022-07-31T11:46:31;2.65;;;1.90;;
42832;SDS011;28479;51.478;5.692;2022-07-31T11:48:58;5.18;;;2.00;;
42832;SDS011;28479;51.478;5.692;2022-07-31T11:51:27;3.80;;;2.13;;
42832;SDS011;28479;51.478;5.692;2022-07-31T11:53:53;2.65;;;2.38;;
42832;SDS011;28479;51.478;5.692;2022-07-31T11:56:24;2.60;;;2.00;;
42832;SDS011;28479;51.478;5.692;2022-07-31T11:58:53;4.63;;;2.42;;
42832;SDS011;28479;51.478;5.692;2022-07-31T12:01:26;5.13;;;2.45;;
42832;SDS011;28479;51.478;5.692;2022-07-31T12:03:52;2.67;;;2.45;;
42832;SDS011;28479;51.478;5.692;2022-07-31T12:06:19;3.30;;;1.80;;
42832;SDS011;28479;51.478;5.692;2022-07-31T12:08:45;2.05;;;1.85;;
42832;SDS011;28479;51.478;5.692;2022-07-31T12:11:12;2.38;;;1.95;;
42832;SDS011;28479;51.478;5.692;2022-07-31T12:13:38;2.35;;;2.15;;
42832;SDS011;28479;51.478;5.692;2022-07-31T12:21:11;3.10;;;2.30;;
42832;SDS011;28479;51.478;5.692;2022-07-31T12:23:41;2.25;;;1.77;;
42832;SDS011;28479;51.478;5.692;2022-07-31T12:26:51;6.07;;;2.22;;
42832;SDS011;28479;51.478;5.692;2022-07-31T12:31:28;5.25;;;1.92;;
42832;SDS011;28479;51.478;5.692;2022-07-31T12:33:54;3.80;;;1.58;;
42832;SDS011;28479;51.478;5.692;2022-07-31T12:36:23;4.07;;;2.05;;
42832;SDS011;28479;51.478;5.692;2022-07-31T12:38:58;2.67;;;1.85;;
42832;SDS011;28479;51.478;5.692;2022-07-31T12:41:26;9.32;;;2.17;;
42832;SDS011;28479;51.478;5.692;2022-07-31T12:44:05;4.45;;;1.90;;
42832;SDS011;28479;51.478;5.692;2022-07-31T12:46:33;2.47;;;1.80;;
42832;SDS011;28479;51.478;5.692;2022-07-31T12:49:00;3.30;;;2.28;;
42832;SDS011;28479;51.478;5.692;2022-07-31T12:51:27;2.83;;;2.13;;
42832;SDS011;28479;51.478;5.692;2022-07-31T12:53:52;3.15;;;2.13;;
42832;SDS011;28479;51.478;5.692;2022-07-31T12:56:18;7.75;;;2.30;;
42832;SDS011;28479;51.478;5.692;2022-07-31T12:58:44;4.45;;;2.03;;
42832;SDS011;28479;51.478;5.692;2022-07-31T13:01:09;3.42;;;2.05;;
42832;SDS011;28479;51.478;5.692;2022-07-31T13:03:35;3.60;;;2.60;;
42832;SDS011;28479;51.478;5.692;2022-07-31T13:06:00;3.95;;;2.55;;
42832;SDS011;28479;51.478;5.692;2022-07-31T13:08:26;2.90;;;2.13;;
42832;SDS011;28479;51.478;5.692;2022-07-31T13:10:53;5.82;;;2.10;;
42832;SDS011;28479;51.478;5.692;2022-07-31T13:13:18;4.30;;;1.83;;
42832;SDS011;28479;51.478;5.692;2022-07-31T13:15:47;4.90;;;2.08;;
42832;SDS011;28479;51.478;5.692;2022-07-31T13:18:12;7.38;;;2.03;;
42832;SDS011;28479;51.478;5.692;2022-07-31T13:20:40;3.53;;;1.98;;
42832;SDS011;28479;51.478;5.692;2022-07-31T13:23:08;3.65;;;1.90;;
42832;SDS011;28479;51.478;5.692;2022-07-31T13:25:34;4.38;;;2.50;;
42832;SDS011;28479;51.478;5.692;2022-07-31T13:27:59;5.65;;;2.08;;
42832;SDS011;28479;51.478;5.692;2022-07-31T13:30:25;3.78;;;2.50;;
42832;SDS011;28479;51.478;5.692;2022-07-31T13:32:53;5.18;;;2.30;;
42832;SDS011;28479;51.478;5.692;2022-07-31T13:35:31;2.97;;;2.22;;
42832;SDS011;28479;51.478;5.692;2022-07-31T13:37:56;2.00;;;1.85;;
42832;SDS011;28479;51.478;5.692;2022-07-31T13:40:23;2.30;;;1.85;;
42832;SDS011;28479;51.478;5.692;2022-07-31T13:43:07;5.38;;;2.17;;
42832;SDS011;28479;51.478;5.692;2022-07-31T13:45:33;3.42;;;1.98;;
42832;SDS011;28479;51.478;5.692;2022-07-31T13:47:59;3.55;;;2.33;;
42832;SDS011;28479;51.478;5.692;2022-07-31T13:50:24;3.40;;;2.13;;
42832;SDS011;28479;51.478;5.692;2022-07-31T13:52:50;3.17;;;2.00;;
42832;SDS011;28479;51.478;5.692;2022-07-31T13:55:16;7.90;;;2.33;;
42832;SDS011;28479;51.478;5.692;2022-07-31T13:57:41;2.75;;;2.03;;
42832;SDS011;28479;51.478;5.692;2022-07-31T14:00:07;3.00;;;1.80;;
42832;SDS011;28479;51.478;5.692;2022-07-31T14:02:33;3.30;;;1.67;;
42832;SDS011;28479;51.478;5.692;2022-07-31T14:04:59;2.47;;;1.90;;
42832;SDS011;28479;51.478;5.692;2022-07-31T14:07:24;2.63;;;2.00;;
42832;SDS011;28479;51.478;5.692;2022-07-31T14:09:50;5.22;;;1.98;;
42832;SDS011;28479;51.478;5.692;2022-07-31T14:12:16;7.68;;;1.92;;
42832;SDS011;28479;51.478;5.692;2022-07-31T14:14:41;3.42;;;2.25;;
42832;SDS011;28479;51.478;5.692;2022-07-31T14:17:07;4.05;;;2.22;;
42832;SDS011;28479;51.478;5.692;2022-07-31T14:19:37;5.28;;;2.22;;
42832;SDS011;28479;51.478;5.692;2022-07-31T14:22:02;3.15;;;1.90;;
42832;SDS011;28479;51.478;5.692;2022-07-31T14:24:28;6.63;;;1.70;;
42832;SDS011;28479;51.478;5.692;2022-07-31T14:26:56;4.57;;;1.80;;
42832;SDS011;28479;51.478;5.692;2022-07-31T14:29:25;1.63;;;1.45;;
42832;SDS011;28479;51.478;5.692;2022-07-31T14:31:50;1.50;;;1.38;;
42832;SDS011;28479;51.478;5.692;2022-07-31T14:34:19;6.85;;;1.50;;
42832;SDS011;28479;51.478;5.692;2022-07-31T14:36:44;3.03;;;1.40;;
42832;SDS011;28479;51.478;5.692;2022-07-31T14:39:10;3.60;;;1.70;;
42832;SDS011;28479;51.478;5.692;2022-07-31T14:41:36;5.47;;;1.92;;
42832;SDS011;28479;51.478;5.692;2022-07-31T14:44:01;1.95;;;1.50;;
42832;SDS011;28479;51.478;5.692;2022-07-31T14:46:28;2.83;;;1.63;;
42832;SDS011;28479;51.478;5.692;2022-07-31T14:48:53;8.75;;;1.48;;
42832;SDS011;28479;51.478;5.692;2022-07-31T14:51:24;1.80;;;1.38;;
42832;SDS011;28479;51.478;5.692;2022-07-31T14:53:50;4.57;;;1.95;;
42832;SDS011;28479;51.478;5.692;2022-07-31T14:56:16;1.92;;;1.27;;
42832;SDS011;28479;51.478;5.692;2022-07-31T14:58:42;2.33;;;1.52;;
42832;SDS011;28479;51.478;5.692;2022-07-31T15:01:12;2.47;;;1.30;;
42832;SDS011;28479;51.478;5.692;2022-07-31T15:03:39;3.17;;;1.50;;
42832;SDS011;28479;51.478;5.692;2022-07-31T15:06:05;3.47;;;1.63;;
42832;SDS011;28479;51.478;5.692;2022-07-31T15:08:31;1.67;;;1.23;;
42832;SDS011;28479;51.478;5.692;2022-07-31T15:10:56;1.60;;;0.95;;